Time;durP1;ratioP1;P1;durP2;ratioP2;P2;SDS_P1;SDS_P2;PMS_P1;PMS_P2;Temp;Humidity;BMP_temperature;BMP_pressure;BME280_temperature;BME280_humidity;BME280_pressure;Samples;Min_cycle;Max_cycle;Signal;HPM_P1;HPM_P2
2023/10/16 00:00:43;;;;;;;5.25;1.70;;;;;;;8.87;70.77;100451.38;4971782;28;20133;-83
2023/10/16 00:03:12;;;;;;;10.70;1.90;;;;;;;8.85;70.94;100454.03;4975704;28;20121;-83
2023/10/16 00:05:49;;;;;;;4.45;1.65;;;;;;;8.85;71.14;100448.78;4990794;28;20042;-82
2023/10/16 00:08:16;;;;;;;6.05;1.80;;;;;;;8.88;71.30;100447.81;4991127;28;20069;-83
2023/10/16 00:10:55;;;;;;;5.43;2.10;;;;;;;8.88;70.61;100446.94;4991528;28;20081;-83
2023/10/16 00:13:26;;;;;;;4.32;1.83;;;;;;;8.92;71.02;100446.78;4986992;28;20055;-83
2023/10/16 00:15:55;;;;;;;5.65;1.52;;;;;;;8.94;71.05;100452.81;4971213;28;20458;-83
2023/10/16 00:18:23;;;;;;;3.95;1.60;;;;;;;8.95;70.98;100449.31;4970400;28;20065;-83
2023/10/16 00:20:51;;;;;;;7.00;2.17;;;;;;;8.96;70.73;100448.38;4971628;28;20055;-83
2023/10/16 00:23:22;;;;;;;4.03;1.45;;;;;;;8.98;70.78;100450.94;4970606;28;20129;-83
2023/10/16 00:25:52;;;;;;;6.55;1.80;;;;;;;8.98;70.62;100443.06;4970356;28;20055;-83
2023/10/16 00:28:21;;;;;;;6.13;1.90;;;;;;;8.98;70.92;100454.41;4972063;28;20043;-83
2023/10/16 00:30:48;;;;;;;3.75;1.73;;;;;;;8.98;71.05;100449.16;4975301;28;20508;-84
2023/10/16 00:33:16;;;;;;;7.95;1.95;;;;;;;8.99;71.37;100453.53;4975155;28;20130;-82
2023/10/16 00:35:45;;;;;;;7.35;2.05;;;;;;;9.01;71.48;100456.06;4990790;28;20100;-83
2023/10/16 00:38:13;;;;;;;4.50;1.95;;;;;;;9.03;71.43;100458.63;4994260;28;20058;-83
2023/10/16 00:40:51;;;;;;;5.13;2.17;;;;;;;9.03;70.98;100446.38;4994615;28;20061;-83
2023/10/16 00:43:21;;;;;;;5.20;2.03;;;;;;;9.06;71.57;100448.88;4994569;28;20057;-83
2023/10/16 00:45:53;;;;;;;6.50;1.85;;;;;;;9.09;71.62;100455.78;4980203;28;20574;-84
2023/10/16 00:48:20;;;;;;;7.28;1.83;;;;;;;9.11;71.19;100446.91;4974941;28;20054;-83
2023/10/16 00:50:48;;;;;;;4.43;2.00;;;;;;;9.12;71.22;100447.75;4974855;28;20484;-83
2023/10/16 00:53:23;;;;;;;5.93;1.67;;;;;;;9.11;70.49;100446.06;4974579;28;20400;-83
2023/10/16 00:55:51;;;;;;;5.30;1.65;;;;;;;9.13;71.04;100452.94;4985340;28;20074;-83
2023/10/16 00:58:18;;;;;;;5.80;1.80;;;;;;;9.12;70.82;100459.13;4992628;28;20487;-83
2023/10/16 01:00:48;;;;;;;9.32;2.05;;;;;;;9.10;71.17;100447.84;4994120;28;20558;-83
2023/10/16 01:03:20;;;;;;;7.85;2.03;;;;;;;9.09;71.26;100450.53;4994073;28;20073;-83
2023/10/16 01:05:49;;;;;;;6.90;2.05;;;;;;;9.08;71.49;100447.03;4985828;28;20109;-83
2023/10/16 01:08:17;;;;;;;5.97;1.98;;;;;;;9.09;71.39;100445.28;4974338;28;20133;-83
2023/10/16 01:10:48;;;;;;;5.20;1.70;;;;;;;9.09;71.62;100446.09;4973105;28;20102;-83
2023/10/16 01:13:16;;;;;;;5.18;2.00;;;;;;;9.10;71.34;100439.97;4973410;28;20566;-83
2023/10/16 01:15:53;;;;;;;6.13;1.73;;;;;;;9.10;71.36;100444.34;4978923;28;20062;-83
2023/10/16 01:18:19;;;;;;;5.32;1.80;;;;;;;9.10;71.30;100437.34;4993756;28;20403;-83
2023/10/16 01:20:48;;;;;;;5.82;1.80;;;;;;;9.11;71.58;100438.16;4993449;28;20422;-83
2023/10/16 01:23:17;;;;;;;3.53;1.63;;;;;;;9.13;71.96;100433.72;4993520;28;20101;-82
2023/10/16 01:25:46;;;;;;;3.88;1.88;;;;;;;9.14;71.87;100432.81;4974022;28;20126;-82
2023/10/16 01:28:15;;;;;;;4.57;2.35;;;;;;;9.17;71.73;100439.69;4991372;28;20050;-82
2023/10/16 01:30:43;;;;;;;3.42;1.67;;;;;;;9.16;71.64;100425.69;4993648;28;20137;-82
2023/10/16 01:33:10;;;;;;;5.57;1.90;;;;;;;9.19;71.30;100436.09;4992992;28;20562;-83
2023/10/16 01:35:37;;;;;;;5.40;1.75;;;;;;;9.18;71.12;100434.41;4993517;28;20049;-83
2023/10/16 01:38:19;;;;;;;7.20;2.03;;;;;;;9.17;70.98;100427.44;4991585;28;20082;-83
2023/10/16 01:41:04;;;;;;;11.30;2.25;;;;;;;9.16;70.63;100436.22;4974708;28;20058;-82
2023/10/16 01:43:32;;;;;;;5.07;1.95;;;;;;;9.16;70.77;100430.97;4972778;28;20126;-83
2023/10/16 01:46:16;;;;;;;3.65;1.85;;;;;;;9.12;70.30;100434.63;4973802;28;20105;-82
2023/10/16 01:48:44;;;;;;;5.32;1.60;;;;;;;9.12;70.80;100430.25;4974259;28;20059;-83
2023/10/16 01:51:19;;;;;;;3.42;1.60;;;;;;;9.10;70.91;100432.09;4973570;28;20575;-83
2023/10/16 01:53:51;;;;;;;3.15;1.60;;;;;;;9.08;70.70;100433.06;4973783;28;20051;-83
2023/10/16 01:56:21;;;;;;;5.40;1.80;;;;;;;9.08;71.43;100433.91;4973573;28;20055;-83
2023/10/16 01:58:52;;;;;;;2.38;1.60;;;;;;;9.08;71.60;100431.28;4973293;28;20514;-83
2023/10/16 02:01:20;;;;;;;4.05;1.60;;;;;;;9.08;71.65;100433.06;4973557;28;20055;-83
2023/10/16 02:03:48;;;;;;;5.38;2.20;;;;;;;9.09;71.48;100426.88;4973730;28;20073;-83
2023/10/16 02:06:16;;;;;;;3.65;1.80;;;;;;;9.09;71.66;100424.25;4972233;28;20495;-83
2023/10/16 02:08:45;;;;;;;5.78;1.70;;;;;;;9.09;71.41;100427.72;4972008;28;20057;-83
2023/10/16 02:11:12;;;;;;;6.10;1.92;;;;;;;9.08;71.25;100422.56;4990988;28;20050;-83
2023/10/16 02:13:40;;;;;;;5.47;1.98;;;;;;;9.08;71.36;100418.16;4993001;28;20086;-82
2023/10/16 02:16:10;;;;;;;2.95;1.52;;;;;;;9.07;71.29;100420.81;4992921;28;20046;-83
2023/10/16 02:18:37;;;;;;;6.00;1.75;;;;;;;9.07;71.37;100415.56;4991176;28;20050;-82
2023/10/16 02:21:05;;;;;;;3.17;1.80;;;;;;;9.06;71.39;100420.00;4992193;28;20050;-82
2023/10/16 02:23:31;;;;;;;2.60;1.52;;;;;;;9.06;71.72;100417.38;4992613;28;20113;-82
2023/10/16 02:26:01;;;;;;;6.15;1.92;;;;;;;9.06;71.62;100411.25;4992387;28;20153;-82
2023/10/16 02:28:31;;;;;;;4.25;1.70;;;;;;;9.05;71.75;100410.38;4992491;28;20407;-83
2023/10/16 02:31:14;;;;;;;5.47;1.65;;;;;;;9.04;71.13;100410.47;4980953;28;20047;-82
2023/10/16 02:33:50;;;;;;;4.57;2.10;;;;;;;9.08;72.09;100412.06;4973108;28;20089;-82
2023/10/16 02:36:18;;;;;;;6.30;1.75;;;;;;;9.10;71.99;100415.47;4972714;28;20051;-83
2023/10/16 02:38:48;;;;;;;5.88;2.22;;;;;;;9.12;72.11;100410.97;4972966;28;20089;-82
2023/10/16 02:41:19;;;;;;;5.88;2.17;;;;;;;9.13;71.89;100421.44;4983352;28;20081;-83
2023/10/16 02:43:47;;;;;;;4.28;1.80;;;;;;;9.15;72.09;100408.25;4992173;28;20050;-83
2023/10/16 02:46:14;;;;;;;4.43;2.05;;;;;;;9.17;71.99;100414.31;4992037;28;20054;-83
2023/10/16 02:48:42;;;;;;;4.18;2.15;;;;;;;9.17;71.88;100400.31;4991975;28;20050;-82
2023/10/16 02:51:14;;;;;;;5.45;1.98;;;;;;;9.17;71.92;100409.06;4984941;28;20082;-82
2023/10/16 02:53:41;;;;;;;4.97;2.00;;;;;;;9.19;71.90;100407.19;4972425;28;20059;-83
2023/10/16 02:56:14;;;;;;;6.90;2.15;;;;;;;9.19;71.90;100404.56;4972711;28;20065;-83
2023/10/16 02:58:46;;;;;;;;;;;;;;;9.19;70.50;100407.19;4972811;28;20050;-82
2023/10/16 03:01:19;;;;;;;3.88;1.58;;;;;;;9.24;71.73;100407.88;4983529;28;20021;-83
2023/10/16 03:03:46;;;;;;;6.88;1.98;;;;;;;9.22;71.70;100414.97;4990442;28;20054;-83
2023/10/16 03:06:14;;;;;;;8.40;2.40;;;;;;;9.22;71.85;100414.09;4991985;28;20054;-82
2023/10/16 03:08:48;;;;;;;5.38;2.10;;;;;;;9.20;71.67;100403.66;4991968;28;20140;-83
2023/10/16 03:11:16;;;;;;;7.97;2.00;;;;;;;9.18;71.19;100404.63;4982727;28;20050;-82
2023/10/16 03:13:43;;;;;;;7.38;2.55;;;;;;;9.15;71.28;100412.66;4972244;28;20503;-83
2023/10/16 03:16:17;;;;;;;6.30;2.17;;;;;;;9.11;71.07;100404.91;4972262;28;20050;-82
2023/10/16 03:18:47;;;;;;;6.10;1.95;;;;;;;9.07;71.08;100408.56;4972251;28;20396;-83
2023/10/16 03:23:47;;;;;;;6.35;2.25;;;;;;;8.99;71.02;100403.63;4991447;28;20105;-82
2023/10/16 03:26:30;;;;;;;5.32;2.58;;;;;;;8.95;71.44;100402.03;4990225;28;20507;-82
2023/10/16 03:29:01;;;;;;;;;;;;;;;8.93;70.11;100403.00;4992054;28;20090;-83
2023/10/16 03:31:28;;;;;;;2.63;1.80;;;;;;;8.93;70.84;100400.38;4989491;28;19932;-82
2023/10/16 03:33:55;;;;;;;7.00;2.20;;;;;;;8.89;71.21;100406.69;4991656;28;20078;-83
2023/10/16 03:36:25;;;;;;;5.43;2.20;;;;;;;8.83;71.01;100408.59;4988995;28;20096;-84
2023/10/16 03:38:52;;;;;;;5.88;2.15;;;;;;;8.81;71.71;100396.47;4991221;28;20125;-83
2023/10/16 03:43:56;;;;;;;4.70;2.50;;;;;;;8.77;71.91;100397.50;4972172;28;20067;-83
2023/10/16 03:46:24;;;;;;;5.13;1.95;;;;;;;8.76;71.96;100398.41;4972040;28;20059;-83
2023/10/16 03:48:50;;;;;;;4.47;2.28;;;;;;;8.75;72.12;100396.72;4970637;28;20050;-82
2023/10/16 03:51:17;;;;;;;5.70;2.38;;;;;;;8.74;71.94;100387.97;4982490;28;20049;-82
2023/10/16 03:53:44;;;;;;;6.38;2.42;;;;;;;8.74;72.36;100395.84;4991236;28;20065;-83
2023/10/16 03:56:17;;;;;;;5.53;2.22;;;;;;;8.76;72.14;100395.78;4989624;28;20065;-83
2023/10/16 03:58:44;;;;;;;3.35;2.30;;;;;;;8.76;72.48;100396.66;4991126;28;20150;-84
2023/10/16 04:01:11;;;;;;;3.50;2.58;;;;;;;8.77;72.26;100400.13;4981919;28;20557;-83
2023/10/16 04:03:47;;;;;;;3.60;1.90;;;;;;;8.79;72.34;100403.56;4991095;28;20080;-83
2023/10/16 04:06:25;;;;;;;5.25;2.17;;;;;;;8.80;72.70;100400.00;4994107;28;20157;-83
2023/10/16 04:08:55;;;;;;;5.47;2.08;;;;;;;8.80;72.46;100407.88;4993713;28;20145;-83
2023/10/16 04:11:24;;;;;;;5.30;1.98;;;;;;;8.83;73.07;100403.34;4988242;28;20047;-82
2023/10/16 04:13:52;;;;;;;3.92;1.90;;;;;;;8.86;73.05;100399.78;4975623;28;20057;-82
2023/10/16 04:21:45;;;;;;;5.53;2.50;;;;;;;8.94;73.07;100402.94;4981075;28;20125;-83
2023/10/16 04:29:45;;;;;;;5.80;2.40;;;;;;;9.03;73.38;100399.09;4994866;28;20533;-85
2023/10/16 04:35:03;;;;;;;6.80;2.35;;;;;;;9.11;73.44;100397.03;4975067;28;20089;-82
2023/10/16 04:37:35;;;;;;;3.67;1.75;;;;;;;9.14;73.30;100388.16;4975051;28;20134;-83
2023/10/16 04:53:25;;;;;;;6.43;2.70;;;;;;;9.19;72.41;100366.97;4984240;28;20052;-82
2023/10/16 05:02:06;;;;;;;8.32;2.72;;;;;;;9.13;72.05;100370.69;4994082;28;20062;-83
2023/10/16 05:14:39;;;;;;;5.70;3.50;;;;;;;9.05;72.62;100364.91;4985162;28;20046;-84
2023/10/16 05:19:53;;;;;;;5.18;3.22;;;;;;;9.04;72.67;100360.56;4993885;28;20112;-82
2023/10/16 06:14:57;;;;;;;6.85;3.58;;;;;;;9.33;73.28;100411.91;4992641;28;20046;-83
2023/10/16 06:17:24;;;;;;;5.03;3.20;;;;;;;9.35;73.46;100398.69;4991613;28;20050;-83
2023/10/16 06:19:51;;;;;;;6.93;3.63;;;;;;;9.38;73.26;100406.44;4992548;28;20038;-82
2023/10/16 06:22:18;;;;;;;10.20;3.75;;;;;;;9.39;73.53;100406.38;4992549;28;20549;-83
2023/10/16 06:24:46;;;;;;;7.30;3.78;;;;;;;9.44;73.42;100400.94;4992476;28;20482;-83
2023/10/16 06:27:19;;;;;;;7.95;3.75;;;;;;;9.48;73.66;100399.03;4977181;28;20503;-83
2023/10/16 06:29:50;;;;;;;7.75;3.72;;;;;;;9.51;73.35;100399.78;4973063;28;20057;-84
2023/10/16 06:32:22;;;;;;;11.35;3.83;;;;;;;9.52;72.92;100401.47;4973015;28;20557;-82
2023/10/16 06:34:51;;;;;;;5.93;3.50;;;;;;;9.58;73.52;100396.88;4971823;28;20062;-83
2023/10/16 06:37:18;;;;;;;6.47;3.72;;;;;;;9.59;73.63;100388.06;4985217;28;20054;-82
2023/10/16 06:39:46;;;;;;;7.70;3.55;;;;;;;9.61;73.37;100378.34;4991967;28;20050;-82
2023/10/16 06:42:19;;;;;;;7.93;4.15;;;;;;;9.64;73.26;100388.72;4992132;28;20059;-83
2023/10/16 06:44:53;;;;;;;5.78;3.10;;;;;;;9.63;72.88;100389.63;4992208;28;20581;-82
2023/10/16 06:47:47;;;;;;;6.43;3.45;;;;;;;9.68;73.41;100389.44;4981351;28;20495;-83
2023/10/16 06:52:52;;;;;;;13.23;3.22;;;;;;;9.71;73.38;100394.56;4972943;28;20069;-83
2023/10/16 06:55:21;;;;;;;8.27;3.67;;;;;;;9.73;73.32;100396.22;4972642;28;20113;-83
2023/10/16 06:57:48;;;;;;;5.70;3.60;;;;;;;9.74;73.48;100400.56;4972401;28;20047;-83
2023/10/16 07:00:32;;;;;;;5.65;3.60;;;;;;;9.75;73.36;100407.53;4971251;28;20053;-83
2023/10/16 07:03:02;;;;;;;6.85;3.10;;;;;;;9.78;73.55;100412.66;4972435;28;20594;-83
2023/10/16 07:05:42;;;;;;;4.57;3.13;;;;;;;9.80;73.77;100414.34;4972625;28;20086;-83
2023/10/16 07:08:20;;;;;;;8.57;3.63;;;;;;;9.78;72.79;100419.69;4972333;28;20109;-83
2023/10/16 07:10:52;;;;;;;5.93;3.55;;;;;;;9.82;73.21;100412.50;4972292;28;20070;-82
2023/10/16 07:13:27;;;;;;;5.27;3.23;;;;;;;9.86;73.62;100421.97;4972322;28;20507;-82
2023/10/16 07:15:59;;;;;;;6.63;3.10;;;;;;;9.87;73.71;100407.91;4970964;28;20050;-82
2023/10/16 07:18:28;;;;;;;4.25;2.97;;;;;;;9.90;73.96;100413.88;4972097;28;20098;-82
2023/10/16 07:23:24;;;;;;;5.85;3.35;;;;;;;9.96;74.07;100417.16;4972123;28;20086;-83
2023/10/16 07:25:54;;;;;;;5.40;3.22;;;;;;;9.98;73.84;100413.53;4970793;28;20058;-82
2023/10/16 07:28:21;;;;;;;5.25;3.15;;;;;;;10.02;74.18;100409.03;4972088;28;20495;-83
2023/10/16 07:30:49;;;;;;;8.95;3.42;;;;;;;10.04;74.03;100417.69;4972220;28;20396;-83
2023/10/16 07:33:16;;;;;;;4.88;3.03;;;;;;;10.09;74.22;100409.59;4972122;28;20061;-83
2023/10/16 07:35:47;;;;;;;4.80;3.00;;;;;;;10.12;73.52;100412.06;4970804;28;20050;-83
2023/10/16 07:38:21;;;;;;;5.03;3.00;;;;;;;10.18;74.07;100414.44;4970030;28;20050;-83
2023/10/16 07:40:52;;;;;;;8.55;3.38;;;;;;;10.22;74.34;100416.03;4972266;28;20051;-82
2023/10/16 07:43:28;;;;;;;5.75;3.15;;;;;;;10.24;73.83;100406.25;4971902;28;20078;-83
2023/10/16 07:46:16;;;;;;;5.65;3.20;;;;;;;10.33;74.55;100412.03;4971906;28;20058;-82
2023/10/16 07:48:52;;;;;;;4.40;2.85;;;;;;;10.37;74.19;100414.47;4971701;28;20117;-83
2023/10/16 07:51:21;;;;;;;4.13;2.53;;;;;;;10.42;74.24;100422.16;4972041;28;20098;-83
2023/10/16 07:53:48;;;;;;;9.27;2.95;;;;;;;10.46;74.25;100418.47;4972069;28;20054;-82
2023/10/16 07:56:19;;;;;;;7.88;3.25;;;;;;;10.49;74.20;100420.13;4971914;28;20130;-83
2023/10/16 07:58:51;;;;;;;9.18;2.72;;;;;;;10.50;73.81;100417.41;4971687;28;20047;-83
2023/10/16 08:01:32;;;;;;;4.63;2.70;;;;;;;10.55;74.43;100417.22;4971746;28;20054;-82
2023/10/16 08:03:59;;;;;;;3.83;2.83;;;;;;;10.60;74.57;100430.16;4972244;28;20050;-82
2023/10/16 08:06:28;;;;;;;8.38;3.75;;;;;;;10.65;74.61;100428.19;4971670;28;20614;-82
2023/10/16 08:11:42;;;;;;;10.52;3.35;;;;;;;10.75;74.65;100437.34;4971575;28;20054;-82
2023/10/16 08:14:10;;;;;;;6.45;3.42;;;;;;;10.80;74.61;100432.72;4971977;28;20058;-83
2023/10/16 08:16:40;;;;;;;6.03;3.33;;;;;;;10.87;74.58;100435.91;4971528;28;20051;-83
2023/10/16 08:19:14;;;;;;;6.47;2.97;;;;;;;10.90;74.59;100438.41;4971698;28;20054;-83
2023/10/16 08:21:42;;;;;;;7.00;3.10;;;;;;;10.94;74.47;100437.34;4971775;28;20137;-82
2023/10/16 08:24:16;;;;;;;6.20;3.38;;;;;;;10.99;74.27;100439.72;4971573;28;20050;-83
2023/10/16 08:26:43;;;;;;;6.00;3.45;;;;;;;11.02;74.22;100431.69;4971418;28;20059;-82
2023/10/16 08:29:18;;;;;;;5.68;2.45;;;;;;;11.07;74.38;100439.38;4971758;28;20051;-82
2023/10/16 08:32:37;;;;;;;9.15;2.92;;;;;;;11.07;74.08;100437.59;4971729;28;20105;-82
2023/10/16 08:34:40;;;;;;;4.43;3.10;;;;;;;11.14;74.33;100437.31;4971259;28;20047;-82
2023/10/16 08:37:09;;;;;;;6.00;3.25;;;;;;;11.16;74.00;100440.69;4971309;28;20093;-82
2023/10/16 08:39:44;;;;;;;7.43;3.67;;;;;;;11.19;74.27;100453.75;4970139;28;20061;-82
2023/10/16 08:42:18;;;;;;;6.30;3.45;;;;;;;11.22;74.48;100448.34;4970246;28;20771;-82
2023/10/16 08:47:46;;;;;;;6.35;3.25;;;;;;;11.34;75.08;100455.59;4948819;28;20145;-82
2023/10/16 08:50:17;;;;;;;7.20;3.10;;;;;;;11.39;74.82;100450.13;4971864;28;20055;-82
2023/10/16 08:52:50;;;;;;;8.90;3.78;;;;;;;11.46;75.00;100448.03;4973775;28;20054;-82
2023/10/16 08:55:17;;;;;;;8.27;5.15;;;;;;;11.52;74.93;100445.13;4974789;28;20105;-83
2023/10/16 08:57:45;;;;;;;5.28;3.22;;;;;;;11.57;74.38;100444.88;4974520;28;20098;-82
2023/10/16 09:00:19;;;;;;;3.85;3.25;;;;;;;11.62;74.75;100436.75;4974897;28;20069;-82
2023/10/16 09:02:51;;;;;;;8.38;4.28;;;;;;;11.66;74.42;100438.28;4974671;28;20134;-82
2023/10/16 09:05:20;;;;;;;4.97;3.50;;;;;;;11.73;74.98;100437.03;4973527;28;20043;-82
2023/10/16 09:07:51;;;;;;;4.93;3.40;;;;;;;11.80;75.14;100437.56;4974490;28;20047;-83
2023/10/16 09:10:21;;;;;;;6.75;3.45;;;;;;;11.88;75.48;100443.31;4973662;28;20473;-82
2023/10/16 09:12:56;;;;;;;5.65;3.00;;;;;;;11.97;75.40;100442.00;4974396;28;20093;-82
2023/10/16 09:15:24;;;;;;;6.45;3.47;;;;;;;12.06;75.38;100444.19;4974617;28;20067;-82
2023/10/16 09:17:52;;;;;;;9.00;3.15;;;;;;;12.15;75.39;100437.53;4974274;28;20058;-83
2023/10/16 09:20:24;;;;;;;5.85;2.83;;;;;;;12.25;75.46;100432.63;4974255;28;20400;-82
2023/10/16 09:22:51;;;;;;;6.63;2.97;;;;;;;12.34;75.27;100437.41;4973444;28;20149;-82
2023/10/16 09:25:23;;;;;;;7.35;3.03;;;;;;;12.43;74.99;100437.88;4973293;28;20057;-83
2023/10/16 09:28:05;;;;;;;4.82;2.90;;;;;;;12.54;74.83;100435.50;4974251;28;20082;-82
2023/10/16 09:30:33;;;;;;;5.70;3.00;;;;;;;12.65;75.23;100440.19;4973062;28;20058;-82
2023/10/16 09:33:01;;;;;;;6.70;2.78;;;;;;;12.72;75.13;100431.00;4974042;28;20066;-82
2023/10/16 09:35:30;;;;;;;4.35;3.05;;;;;;;12.82;75.05;100435.78;4974257;28;20046;-82
2023/10/16 09:38:17;;;;;;;4.82;2.60;;;;;;;12.86;73.00;100440.78;4974167;28;20058;-83
2023/10/16 09:40:58;;;;;;;6.00;2.70;;;;;;;12.94;72.44;100447.44;4974197;28;20054;-83
2023/10/16 09:43:27;;;;;;;6.85;3.05;;;;;;;12.99;72.87;100445.41;4972865;28;20057;-83
2023/10/16 09:48:39;;;;;;;4.20;2.58;;;;;;;13.00;73.03;100452.38;4973932;28;20062;-82
2023/10/16 09:51:09;;;;;;;6.15;2.53;;;;;;;12.98;73.35;100444.53;4973961;28;20057;-82
2023/10/16 09:53:35;;;;;;;9.68;2.63;;;;;;;13.00;74.13;100449.75;4973832;28;20050;-82
2023/10/16 09:56:04;;;;;;;8.38;3.50;;;;;;;13.02;73.77;100456.63;4973667;28;20046;-82
2023/10/16 09:58:35;;;;;;;7.30;3.75;;;;;;;13.08;73.13;100457.25;4972421;28;20058;-83
2023/10/16 10:01:10;;;;;;;8.15;3.55;;;;;;;13.12;73.13;100449.06;4973398;28;20063;-82
2023/10/16 10:03:38;;;;;;;10.05;4.30;;;;;;;13.18;73.82;100447.84;4973687;28;20415;-82
2023/10/16 10:06:08;;;;;;;6.05;4.15;;;;;;;13.25;74.78;100445.72;4973545;28;20051;-82
2023/10/16 10:09:20;;;;;;;8.93;4.95;;;;;;;13.32;74.28;100452.38;4973362;28;20058;-82
2023/10/16 10:12:13;;;;;;;10.27;5.70;;;;;;;13.45;72.77;100460.44;4973436;28;20054;-82
2023/10/16 10:14:48;;;;;;;9.15;4.97;;;;;;;13.59;72.96;100441.16;4973385;28;20086;-82
2023/10/16 10:17:20;;;;;;;4.72;3.90;;;;;;;13.70;73.38;100445.81;4973334;28;20117;-83
2023/10/16 10:19:54;;;;;;;5.22;3.60;;;;;;;13.79;73.05;100444.38;4973385;28;20051;-83
2023/10/16 10:22:28;;;;;;;6.68;4.05;;;;;;;13.91;74.65;100446.31;4973336;28;20082;-83
2023/10/16 10:25:16;;;;;;;8.18;4.30;;;;;;;14.01;72.43;100449.25;4973129;28;20055;-83
2023/10/16 10:27:47;;;;;;;6.22;3.65;;;;;;;14.19;74.32;100449.09;4972917;28;20050;-83
2023/10/16 10:30:25;;;;;;;6.00;3.10;;;;;;;14.28;71.45;100451.16;4973203;28;20487;-83
2023/10/16 10:32:53;;;;;;;5.55;2.88;;;;;;;14.39;73.32;100452.31;4973153;28;20057;-83
2023/10/16 10:35:30;;;;;;;5.75;2.63;;;;;;;14.46;72.74;100454.47;4972892;28;20050;-82
2023/10/16 10:38:18;;;;;;;6.22;2.97;;;;;;;14.51;70.94;100456.00;4973023;28;20046;-82
2023/10/16 10:41:10;;;;;;;6.22;2.40;;;;;;;14.58;70.65;100457.31;4972984;28;20114;-82
2023/10/16 10:43:49;;;;;;;5.85;2.35;;;;;;;14.69;70.70;100454.81;4966253;28;20133;-83
2023/10/16 10:46:21;;;;;;;6.07;2.38;;;;;;;14.79;70.83;100448.97;4972916;28;20054;-83
2023/10/16 10:48:48;;;;;;;6.78;2.88;;;;;;;14.88;72.63;100440.41;4972761;28;20077;-83
2023/10/16 10:51:16;;;;;;;4.70;2.20;;;;;;;14.96;72.39;100451.38;4972780;28;20101;-82
2023/10/16 10:53:57;;;;;;;6.85;2.33;;;;;;;15.04;70.62;100447.41;4972771;28;20054;-82
2023/10/16 10:56:48;;;;;;;8.50;2.65;;;;;;;15.16;70.53;100451.91;4972440;28;20488;-83
2023/10/16 10:59:40;;;;;;;4.50;2.10;;;;;;;15.28;69.79;100439.63;4971439;28;20404;-82
2023/10/16 11:04:59;;;;;;;4.72;1.65;;;;;;;15.43;68.80;100424.50;4972374;28;20062;-83
2023/10/16 11:07:45;;;;;;;5.00;2.30;;;;;;;15.41;67.54;100430.88;4972399;28;20114;-83
2023/10/16 11:10:13;;;;;;;3.75;2.17;;;;;;;15.40;69.30;100421.22;4972506;28;20106;-83
2023/10/16 11:12:40;;;;;;;6.57;2.65;;;;;;;15.37;69.84;100414.31;4971755;28;20047;-82
2023/10/16 11:15:10;;;;;;;6.93;2.67;;;;;;;15.32;67.96;100422.56;4972032;28;20055;-83
2023/10/16 11:17:40;;;;;;;6.78;2.28;;;;;;;15.32;69.20;100427.00;4971087;28;20492;-82
2023/10/16 11:22:46;;;;;;;5.40;3.13;;;;;;;15.44;72.46;100414.75;4972238;28;20086;-82
2023/10/16 11:25:13;;;;;;;8.52;2.92;;;;;;;15.65;73.98;100412.44;4972206;28;20061;-83
2023/10/16 11:27:44;;;;;;;7.50;2.63;;;;;;;15.99;73.41;100403.97;4971868;28;20067;-83
2023/10/16 11:30:18;;;;;;;6.07;2.80;;;;;;;16.45;74.00;100405.19;4972331;28;20059;-83
2023/10/16 11:32:49;;;;;;;3.55;2.05;;;;;;;17.03;74.77;100409.91;4972224;28;20050;-83
2023/10/16 11:35:17;;;;;;;5.78;2.35;;;;;;;17.67;77.37;100407.00;4972094;28;20046;-83
2023/10/16 11:37:55;;;;;;;4.07;2.10;;;;;;;18.27;71.41;100404.19;4971949;28;20047;-83
2023/10/16 11:40:32;;;;;;;6.63;1.95;;;;;;;18.88;73.17;100392.19;4972168;28;20054;-83
2023/10/16 11:43:02;;;;;;;4.32;1.70;;;;;;;19.47;69.38;100385.69;4970940;28;20055;-82
2023/10/16 11:45:33;;;;;;;4.03;1.30;;;;;;;19.99;67.34;100388.38;4971778;28;20138;-83
2023/10/16 11:51:06;;;;;;;4.30;1.33;;;;;;;20.99;62.68;100386.81;4972194;28;20050;-83
2023/10/16 11:53:34;;;;;;;3.45;1.35;;;;;;;21.39;65.38;100372.44;4972132;28;20463;-83
2023/10/16 11:56:01;;;;;;;4.78;1.30;;;;;;;21.64;61.99;100380.00;4971912;28;20055;-83
2023/10/16 11:58:31;;;;;;;3.63;1.17;;;;;;;21.72;60.17;100370.28;4971685;28;20138;-83
2023/10/16 12:01:08;;;;;;;3.40;1.10;;;;;;;21.70;59.03;100369.56;4971667;28;20051;-83
2023/10/16 12:03:55;;;;;;;6.53;1.27;;;;;;;21.56;57.61;100375.34;4972229;28;20059;-83
2023/10/16 12:06:22;;;;;;;6.22;1.13;;;;;;;21.29;56.60;100372.47;4971862;28;20102;-83
2023/10/16 12:08:49;;;;;;;5.57;1.63;;;;;;;20.96;56.02;100372.75;4971626;28;20138;-82
2023/10/16 12:11:15;;;;;;;4.50;1.27;;;;;;;20.59;55.65;100376.03;4971602;28;20047;-83
2023/10/16 12:13:42;;;;;;;2.85;1.27;;;;;;;20.22;55.66;100379.34;4971909;28;20055;-83
2023/10/16 12:16:09;;;;;;;4.45;1.13;;;;;;;19.82;55.96;100378.28;4971767;28;20463;-83
2023/10/16 12:18:51;;;;;;;4.65;1.30;;;;;;;19.40;56.29;100375.50;4971579;28;20109;-82
2023/10/16 12:21:19;;;;;;;2.83;1.23;;;;;;;19.05;56.81;100382.00;4970341;28;20062;-82
2023/10/16 12:23:47;;;;;;;2.47;1.23;;;;;;;18.73;57.16;100383.63;4970409;28;20522;-82
2023/10/16 12:26:16;;;;;;;6.32;1.27;;;;;;;18.45;57.27;100391.22;4975441;28;20062;-82
2023/10/16 12:28:43;;;;;;;3.72;1.35;;;;;;;18.18;57.80;100381.81;4975199;28;20109;-82
2023/10/16 12:31:10;;;;;;;3.83;1.20;;;;;;;17.93;57.86;100381.03;4974056;28;20086;-82
2023/10/16 12:33:37;;;;;;;4.68;1.50;;;;;;;17.69;58.22;100383.78;4975239;28;20070;-82
2023/10/16 12:36:07;;;;;;;2.65;1.10;;;;;;;17.47;58.18;100385.44;4975127;28;20506;-82
2023/10/16 12:38:34;;;;;;;5.53;1.30;;;;;;;17.25;58.49;100389.72;4975229;28;20171;-82
2023/10/16 12:41:05;;;;;;;2.85;1.27;;;;;;;17.05;58.77;100386.72;4975208;28;20051;-82
2023/10/16 12:43:31;;;;;;;3.58;1.23;;;;;;;16.87;59.06;100393.38;4975172;28;20058;-82
2023/10/16 12:45:59;;;;;;;2.35;1.25;;;;;;;16.66;59.63;100384.22;4974915;28;20055;-82
2023/10/16 12:48:28;;;;;;;5.65;1.35;;;;;;;16.50;59.57;100380.97;4973622;28;20051;-82
2023/10/16 12:50:59;;;;;;;6.43;1.60;;;;;;;16.32;59.15;100375.16;4974809;28;20054;-82
2023/10/16 12:53:38;;;;;;;4.78;1.23;;;;;;;16.21;60.48;100375.91;4974880;28;20526;-81
2023/10/16 12:56:06;;;;;;;7.82;1.73;;;;;;;16.08;61.04;100375.94;4974843;28;20074;-82
2023/10/16 12:58:36;;;;;;;5.90;1.50;;;;;;;15.95;60.56;100376.81;4973240;28;20051;-82
2023/10/16 13:01:05;;;;;;;5.18;1.20;;;;;;;15.90;62.02;100373.59;4974592;28;20067;-82
2023/10/16 13:03:33;;;;;;;4.38;1.40;;;;;;;15.85;62.26;100386.34;4974904;28;20093;-82
2023/10/16 13:06:05;;;;;;;4.35;1.35;;;;;;;15.81;62.44;100392.81;4973554;28;20058;-82
2023/10/16 13:08:35;;;;;;;7.60;1.60;;;;;;;15.74;61.81;100385.28;4973237;28;20428;-82
2023/10/16 13:11:01;;;;;;;4.43;1.70;;;;;;;15.73;62.73;100380.06;4974329;28;20058;-83
2023/10/16 13:13:28;;;;;;;7.72;1.27;;;;;;;15.72;63.45;100386.34;4974437;28;20047;-82
2023/10/16 13:15:57;;;;;;;4.53;1.33;;;;;;;15.70;63.73;100378.47;4973089;28;20134;-83
2023/10/16 13:18:27;;;;;;;5.05;1.77;;;;;;;15.71;63.66;100369.56;4974202;28;20522;-82
2023/10/16 13:21:06;;;;;;;7.05;1.70;;;;;;;15.69;62.15;100370.59;4974402;28;20392;-82
2023/10/16 13:23:36;;;;;;;4.32;1.98;;;;;;;15.72;63.71;100375.72;4974463;28;20416;-82
2023/10/16 13:26:14;;;;;;;6.05;1.40;;;;;;;15.73;63.87;100370.31;4974199;28;20466;-82
2023/10/16 13:28:42;;;;;;;4.35;1.63;;;;;;;15.74;64.56;100369.34;4974290;28;20059;-82
2023/10/16 13:31:09;;;;;;;6.25;1.70;;;;;;;15.80;64.38;100361.91;4974221;28;20510;-83
2023/10/16 13:33:40;;;;;;;3.92;1.45;;;;;;;15.83;64.35;100361.69;4974300;28;20850;-82
2023/10/16 13:36:11;;;;;;;5.18;1.60;;;;;;;15.88;64.04;100360.44;4972089;28;20483;-83
2023/10/16 13:38:39;;;;;;;7.45;1.58;;;;;;;15.93;63.82;100365.44;4972866;28;20055;-82
2023/10/16 13:41:18;;;;;;;4.53;1.23;;;;;;;15.96;63.86;100357.25;4974178;28;20050;-82
2023/10/16 13:43:46;;;;;;;8.68;1.70;;;;;;;15.99;63.60;100354.41;4974231;28;20476;-82
2023/10/16 13:46:14;;;;;;;5.18;1.10;;;;;;;16.04;63.92;100362.06;4974056;28;20194;-82
2023/10/16 13:48:45;;;;;;;3.15;1.48;;;;;;;16.11;64.56;100357.97;4973668;28;20047;-82
2023/10/16 13:51:16;;;;;;;7.88;1.60;;;;;;;16.24;64.92;100354.47;4973800;28;20466;-82
2023/10/16 13:53:46;;;;;;;3.33;1.20;;;;;;;16.43;65.57;100354.00;4974077;28;20178;-82